createdAt,value
2023-03-06T00:03:42.089Z,5.10
2023-03-06T00:08:45.292Z,6.50
2023-03-06T00:13:48.343Z,5.60
2023-03-06T00:18:52.134Z,5.40
2023-03-06T00:23:55.063Z,5.50
2023-03-06T00:28:58.276Z,5.20
2023-03-06T00:34:02.279Z,5.00
2023-03-06T00:39:05.420Z,5.30
2023-03-06T00:44:08.616Z,4.90
2023-03-06T00:49:11.725Z,5.30
2023-03-06T00:54:17.266Z,4.50
2023-03-06T00:59:48.435Z,4.20
2023-03-06T01:04:54.392Z,4.80
2023-03-06T01:09:57.498Z,4.30
2023-03-06T01:15:00.626Z,4.30
2023-03-06T01:20:05.470Z,4.80
2023-03-06T01:25:09.394Z,5.00
2023-03-06T01:30:13.312Z,5.30
2023-03-06T01:35:19.796Z,4.20
2023-03-06T01:40:23.072Z,5.50
2023-03-06T01:45:26.328Z,5.40
2023-03-06T01:50:29.628Z,4.10
2023-03-06T01:55:35.201Z,4.00
2023-03-06T02:00:38.556Z,5.00
2023-03-06T02:05:43.917Z,3.80
2023-03-06T02:11:05.306Z,4.20
2023-03-06T02:16:10.294Z,4.40
2023-03-06T02:21:23.128Z,4.20
2023-03-06T02:26:28.695Z,5.00
2023-03-06T02:31:33.748Z,4.00
2023-03-06T02:36:45.792Z,4.50
2023-03-06T02:41:49.117Z,4.60
2023-03-06T02:46:52.575Z,5.60
2023-03-06T02:51:55.700Z,6.40
2023-03-06T02:56:58.801Z,6.70
2023-03-06T03:02:02.066Z,4.70
2023-03-06T03:07:05.304Z,4.90
2023-03-06T03:12:09.052Z,4.00
2023-03-06T03:17:12.017Z,4.00
2023-03-06T03:22:15.306Z,3.30
2023-03-06T03:27:18.343Z,5.30
2023-03-06T03:32:21.380Z,4.40
2023-03-06T03:37:24.756Z,4.20
2023-03-06T03:42:27.741Z,3.90
2023-03-06T03:47:31.020Z,3.60
2023-03-06T03:52:34.099Z,3.80
2023-03-06T03:57:39.348Z,4.10
2023-03-06T04:02:44.832Z,5.10
2023-03-06T04:07:48.118Z,6.00
2023-03-06T04:13:22.389Z,4.00
2023-03-06T04:18:26.787Z,5.90
2023-03-06T04:23:30.643Z,4.10
2023-03-06T04:28:33.751Z,4.80
2023-03-06T04:33:36.707Z,6.00
2023-03-06T04:38:40.095Z,5.20
2023-03-06T04:43:43.222Z,5.90
2023-03-06T04:48:46.292Z,5.20
2023-03-06T04:53:49.339Z,6.70
2023-03-06T04:58:54.794Z,5.60
2023-03-06T05:03:57.901Z,6.10
2023-03-06T05:09:14.014Z,6.00
2023-03-06T05:14:17.324Z,5.70
2023-03-06T05:19:20.551Z,5.10
2023-03-06T05:24:23.740Z,5.20
2023-03-06T05:29:27.018Z,6.00
2023-03-06T05:34:33.375Z,5.00
2023-03-06T05:39:36.565Z,5.40
2023-03-06T05:44:39.847Z,6.50
2023-03-06T05:49:43.109Z,5.30
2023-03-06T05:54:52.200Z,6.50
2023-03-06T05:59:55.498Z,7.30
2023-03-06T06:04:58.785Z,5.60
2023-03-06T06:10:03.835Z,4.00
2023-03-06T06:15:08.099Z,3.70
2023-03-06T06:20:12.464Z,5.40
2023-03-06T06:25:16.314Z,5.70
2023-03-06T06:30:19.789Z,7.20
2023-03-06T06:35:26.732Z,7.40
2023-03-06T06:40:30.197Z,5.60
2023-03-06T06:45:33.281Z,4.80
2023-03-06T06:50:38.706Z,4.90
2023-03-06T06:55:43.152Z,5.20
2023-03-06T07:00:46.308Z,5.20
2023-03-06T07:05:56.405Z,5.30
2023-03-06T07:11:04.599Z,4.30
2023-03-06T07:16:08.305Z,4.30
2023-03-06T07:21:12.383Z,4.80
2023-03-06T07:26:15.467Z,4.20
2023-03-06T07:31:23.196Z,8.40
2023-03-06T07:36:26.623Z,14.60
2023-03-06T07:41:32.131Z,14.20
2023-03-06T07:46:35.837Z,10.50
2023-03-06T07:51:49.216Z,12.60
2023-03-06T07:56:53.356Z,4.80
2023-03-06T08:02:01.803Z,6.90
2023-03-06T08:07:07.677Z,5.40
2023-03-06T08:12:15.144Z,9.20
2023-03-06T08:17:18.893Z,5.50
2023-03-06T08:22:21.972Z,10.10
2023-03-06T08:27:30.552Z,7.20
2023-03-06T08:32:38.083Z,9.00
2023-03-06T08:37:41.568Z,6.20
2023-03-06T08:42:47.469Z,5.10
2023-03-06T08:47:50.513Z,7.50
2023-03-06T08:52:53.724Z,8.70
2023-03-06T08:57:57.535Z,13.00
2023-03-06T09:03:00.968Z,8.30
2023-03-06T09:08:03.897Z,7.10
2023-03-06T09:13:07.216Z,4.80
2023-03-06T09:18:10.399Z,6.20
2023-03-06T09:23:13.902Z,6.50
2023-03-06T09:28:18.026Z,5.10
2023-03-06T09:33:22.094Z,2.70
2023-03-06T09:38:28.211Z,1.70
2023-03-06T09:43:51.752Z,2.70
2023-03-06T09:49:23.250Z,2.50
2023-03-06T09:54:47.805Z,1.90
2023-03-06T09:59:59.132Z,2.80
2023-03-06T10:05:15.170Z,3.00
2023-03-06T10:10:27.132Z,3.00
2023-03-06T10:15:39.532Z,1.70
2023-03-06T10:21:19.593Z,1.30
2023-03-06T10:26:34.462Z,1.40
2023-03-06T10:31:44.674Z,1.70
2023-03-06T10:36:48.599Z,1.50
2023-03-06T10:41:51.841Z,5.20
2023-03-06T10:46:56.445Z,10.40
2023-03-06T10:52:21.945Z,6.00
2023-03-06T10:57:32.795Z,2.80
2023-03-06T11:02:41.209Z,5.60
2023-03-06T11:07:57.673Z,9.30
2023-03-06T11:13:19.415Z,7.90
2023-03-06T11:18:40.076Z,12.50
2023-03-06T11:23:47.682Z,2.10
2023-03-06T11:29:29.398Z,7.90
2023-03-06T11:34:44.924Z,6.90
2023-03-06T11:40:06.548Z,11.50
2023-03-06T11:45:44.048Z,10.90
2023-03-06T11:50:52.690Z,10.00
2023-03-06T11:56:29.462Z,3.70
2023-03-06T12:01:37.628Z,5.20
2023-03-06T12:06:41.058Z,6.60
2023-03-06T12:11:59.318Z,4.90
2023-03-06T12:17:08.219Z,4.50
2023-03-06T12:22:57.520Z,5.90
2023-03-06T12:28:11.549Z,1.70
2023-03-06T12:34:07.782Z,7.90
2023-03-06T12:39:54.604Z,4.10
2023-03-06T12:45:33.208Z,3.30
2023-03-06T12:50:38.298Z,1.90
2023-03-06T12:55:49.210Z,1.40
2023-03-06T13:01:20.205Z,1.60
2023-03-06T13:07:03.865Z,1.80
2023-03-06T13:12:16.032Z,2.90
2023-03-06T13:17:39.230Z,1.70
2023-03-06T13:22:46.294Z,1.10
2023-03-06T13:27:52.273Z,2.00
2023-03-06T13:32:56.574Z,1.90
2023-03-06T13:38:00.913Z,3.00
2023-03-06T13:43:09.072Z,0.90
2023-03-06T13:48:45.805Z,1.30
2023-03-06T13:54:17.226Z,1.80
2023-03-06T14:00:09.528Z,4.40
2023-03-06T14:05:17.010Z,3.10
2023-03-06T14:10:26.211Z,2.40
2023-03-06T14:15:45.479Z,6.60
2023-03-06T14:21:04.777Z,3.60
2023-03-06T14:26:24.615Z,4.50
2023-03-06T14:31:41.304Z,2.50
2023-03-06T14:36:51.401Z,5.30
2023-03-06T14:42:25.915Z,5.00
2023-03-06T14:47:42.883Z,7.20
2023-03-06T14:52:47.088Z,5.10
2023-03-06T14:57:58.518Z,7.00
2023-03-06T15:03:06.795Z,22.30
2023-03-06T15:08:10.349Z,24.40
2023-03-06T15:13:26.610Z,14.60
2023-03-06T15:18:39.089Z,6.50
2023-03-06T15:23:48.541Z,14.30
2023-03-06T15:29:23.504Z,16.80
2023-03-06T15:34:41.933Z,29.30
2023-03-06T15:39:48.924Z,48.40
2023-03-06T15:45:00.528Z,23.10
2023-03-06T15:50:04.376Z,27.70
2023-03-06T15:55:20.220Z,28.30
2023-03-06T16:00:30.932Z,24.30
2023-03-06T16:05:34.155Z,23.20
2023-03-06T16:10:46.709Z,7.80
2023-03-06T16:15:54.534Z,28.00
2023-03-06T16:20:57.701Z,18.40
2023-03-06T16:26:01.517Z,30.50
2023-03-06T16:31:07.569Z,44.80
2023-03-06T16:36:27.826Z,17.10
2023-03-06T16:41:31.463Z,14.00
2023-03-06T16:46:42.932Z,16.80
2023-03-06T16:51:56.104Z,11.30
2023-03-06T16:57:00.676Z,11.80
2023-03-06T17:02:03.933Z,15.90
2023-03-06T17:07:07.214Z,54.20
2023-03-06T17:12:10.381Z,18.50
2023-03-06T17:17:13.479Z,43.50
2023-03-06T17:22:19.036Z,48.00
2023-03-06T17:27:23.058Z,31.70
2023-03-06T17:32:27.327Z,33.90
2023-03-06T17:37:32.235Z,23.90
2023-03-06T17:42:59.249Z,24.80
2023-03-06T17:48:03.624Z,19.00
2023-03-06T17:53:07.086Z,23.10
2023-03-06T17:58:12.318Z,22.50
2023-03-06T18:03:22.481Z,26.80
2023-03-06T18:08:38.585Z,20.30
2023-03-06T18:13:46.851Z,20.20
2023-03-06T18:18:58.492Z,22.60
2023-03-06T18:24:01.452Z,17.40
2023-03-06T18:29:05.143Z,20.30
2023-03-06T18:34:13.481Z,22.60
2023-03-06T18:39:16.688Z,27.90
2023-03-06T18:44:23.880Z,29.90
2023-03-06T18:49:35.293Z,18.30
2023-03-06T18:54:39.014Z,16.50
2023-03-06T18:59:43.468Z,16.70
2023-03-06T19:04:48.099Z,48.10
2023-03-06T19:09:56.088Z,17.80
2023-03-06T19:14:59.104Z,13.90
2023-03-06T19:20:05.003Z,11.00
2023-03-06T19:25:10.125Z,12.70
2023-03-06T19:30:15.717Z,14.70
2023-03-06T19:35:21.952Z,15.70
2023-03-06T19:40:25.614Z,22.20
2023-03-06T19:45:31.064Z,44.90
2023-03-06T19:50:34.697Z,26.00
2023-03-06T19:55:38.587Z,14.90
2023-03-06T20:00:42.064Z,13.80
2023-03-06T20:05:48.121Z,12.20
2023-03-06T20:10:51.048Z,18.30
2023-03-06T20:15:55.160Z,18.70
2023-03-06T20:21:03.869Z,12.60
2023-03-06T20:26:11.932Z,17.10
2023-03-06T20:31:19.177Z,13.80
2023-03-06T20:36:31.342Z,13.00
2023-03-06T20:41:35.532Z,11.90
2023-03-06T20:46:39.987Z,15.10
2023-03-06T20:51:43.994Z,12.20
2023-03-06T20:56:49.164Z,10.40
2023-03-06T21:01:53.330Z,9.50
2023-03-06T21:06:56.448Z,9.90
2023-03-06T21:12:00.265Z,7.50
2023-03-06T21:17:03.406Z,9.80
2023-03-06T21:22:06.503Z,13.20
2023-03-06T21:27:09.620Z,11.00
2023-03-06T21:32:12.616Z,11.10
2023-03-06T21:37:15.694Z,14.20
2023-03-06T21:42:18.640Z,14.50
2023-03-06T21:47:21.542Z,12.80
2023-03-06T21:52:26.465Z,14.50
2023-03-06T21:57:29.630Z,11.50
2023-03-06T22:02:32.499Z,10.40
2023-03-06T22:07:39.367Z,12.20
2023-03-06T22:12:42.330Z,11.20
2023-03-06T22:17:45.541Z,8.90
2023-03-06T22:22:48.452Z,8.40
2023-03-06T22:27:51.451Z,10.70
2023-03-06T22:32:54.615Z,10.70
2023-03-06T22:37:58.781Z,10.90
2023-03-06T22:43:01.803Z,11.80
2023-03-06T22:48:11.063Z,9.60
2023-03-06T22:53:14.246Z,11.20
2023-03-06T22:58:17.142Z,13.10
2023-03-06T23:03:20.004Z,12.70
2023-03-06T23:08:23.044Z,11.10
2023-03-06T23:13:26.082Z,11.30
2023-03-06T23:18:29.887Z,12.10
2023-03-06T23:23:32.779Z,12.40
2023-03-06T23:28:36.002Z,11.50
2023-03-06T23:33:39.200Z,11.30
2023-03-06T23:38:42.789Z,14.40
2023-03-06T23:43:47.891Z,15.80
2023-03-06T23:48:50.792Z,17.90
2023-03-06T23:53:58.305Z,19.90
2023-03-06T23:59:01.452Z,18.60
